Time;durP1;ratioP1;P1;durP2;ratioP2;P2;SDS_P1;SDS_P2;PMS_P1;PMS_P2;Temp;Humidity;BMP_temperature;BMP_pressure;BME280_temperature;BME280_humidity;BME280_pressure;Samples;Min_cycle;Max_cycle;Signal;HPM_P1;HPM_P2
2023/09/13 00:00:20;;;;;;;26.10;16.13;;;;;;;16.90;100.00;100157.00;4992170;28;20283;-72
2023/09/13 00:02:47;;;;;;;23.37;15.40;;;;;;;16.89;100.00;100160.59;4998881;28;20223;-74
2023/09/13 00:05:13;;;;;;;26.33;14.90;;;;;;;16.92;100.00;100166.75;4987333;28;20250;-72
2023/09/13 00:07:40;;;;;;;24.10;14.93;;;;;;;16.95;100.00;100162.28;4985385;28;20197;-72
2023/09/13 00:10:07;;;;;;;26.13;15.23;;;;;;;17.00;100.00;100173.78;4989015;28;20207;-72
2023/09/13 00:12:34;;;;;;;21.77;14.90;;;;;;;17.00;100.00;100174.66;4994615;28;20716;-72
2023/09/13 00:15:00;;;;;;;26.20;16.53;;;;;;;17.08;100.00;100188.78;4991685;28;20203;-71
2023/09/13 00:17:27;;;;;;;28.10;17.93;;;;;;;17.23;100.00;100185.88;4989014;28;20227;-72
2023/09/13 00:19:56;;;;;;;29.67;18.87;;;;;;;17.37;100.00;100188.31;4989341;28;20208;-72
2023/09/13 00:22:23;;;;;;;30.47;17.93;;;;;;;17.41;100.00;100195.38;4987264;28;20221;-75
2023/09/13 00:24:49;;;;;;;29.07;18.17;;;;;;;17.49;100.00;100192.56;4994110;28;20244;-72
2023/09/13 00:27:16;;;;;;;28.67;16.37;;;;;;;17.46;100.00;100190.81;4988894;28;20284;-72
2023/09/13 00:29:42;;;;;;;25.57;15.63;;;;;;;17.50;100.00;100194.31;4996363;28;20228;-72
2023/09/13 00:32:09;;;;;;;23.70;14.73;;;;;;;17.47;100.00;100184.53;4986329;28;20224;-74
2023/09/13 00:34:35;;;;;;;27.00;16.23;;;;;;;17.54;100.00;100199.59;4984581;28;20576;-72
2023/09/13 00:37:02;;;;;;;30.47;18.27;;;;;;;17.67;100.00;100186.91;4987984;28;20193;-72
2023/09/13 00:39:28;;;;;;;32.10;18.70;;;;;;;17.65;100.00;100177.09;4995398;28;20197;-72
2023/09/13 00:41:57;;;;;;;29.13;18.33;;;;;;;17.65;100.00;100178.00;4996770;28;20669;-72
2023/09/13 00:44:24;;;;;;;28.37;18.30;;;;;;;17.61;100.00;100187.00;4989077;28;20230;-73
2023/09/13 00:46:50;;;;;;;25.43;16.27;;;;;;;17.60;100.00;100181.63;4987240;28;20310;-72
2023/09/13 00:49:17;;;;;;;25.03;16.63;;;;;;;17.49;100.00;100168.44;4987583;28;20197;-72
2023/09/13 00:51:44;;;;;;;27.27;15.87;;;;;;;17.46;100.00;100190.81;4991119;28;20192;-72
2023/09/13 00:54:11;;;;;;;24.90;15.63;;;;;;;17.43;100.00;100193.56;4996765;28;20212;-72
2023/09/13 00:56:38;;;;;;;27.43;16.47;;;;;;;17.49;100.00;100193.44;4995215;28;20208;-72
2023/09/13 00:59:05;;;;;;;27.23;16.73;;;;;;;17.46;100.00;100192.59;4986140;28;20681;-72
2023/09/13 01:01:32;;;;;;;28.03;17.17;;;;;;;17.55;100.00;100197.78;5002694;28;20288;-72
2023/09/13 01:03:59;;;;;;;30.80;18.47;;;;;;;17.50;100.00;100194.31;4986100;28;20221;-72
2023/09/13 01:06:27;;;;;;;28.23;17.13;;;;;;;17.50;100.00;100200.56;4986672;28;20201;-72
2023/09/13 01:08:53;;;;;;;32.30;17.87;;;;;;;17.55;100.00;100197.78;4985243;28;20680;-72
2023/09/13 01:11:19;;;;;;;28.30;17.13;;;;;;;17.50;100.00;100205.03;4985214;28;20630;-72
2023/09/13 01:13:46;;;;;;;31.13;17.50;;;;;;;17.53;100.00;100199.63;4991488;28;20239;-72
2023/09/13 01:16:23;;;;;;;27.93;16.97;;;;;;;17.58;100.00;100204.88;5002792;28;20502;-72
2023/09/13 01:19:28;;;;;;;27.47;16.40;;;;;;;17.63;100.00;100208.41;5004189;28;20200;-72
2023/09/13 01:22:16;;;;;;;27.53;15.10;;;;;;;17.68;100.00;100209.22;4994149;28;20270;-72
2023/09/13 01:25:20;;;;;;;24.53;15.03;;;;;;;17.58;100.00;100202.22;4986796;28;20220;-73
2023/09/13 01:28:15;;;;;;;25.10;15.80;;;;;;;17.63;100.00;100209.28;4986754;28;20822;-73
2023/09/13 01:30:43;;;;;;;21.40;13.50;;;;;;;17.54;100.00;100206.75;4991880;28;20192;-73
2023/09/13 01:33:09;;;;;;;20.77;13.73;;;;;;;17.41;100.00;100207.88;4999948;28;20234;-71
2023/09/13 01:35:35;;;;;;;22.43;13.83;;;;;;;17.34;100.00;100206.22;5000214;28;20259;-71
2023/09/13 01:38:02;;;;;;;20.17;13.33;;;;;;;17.32;100.00;100213.41;4998078;28;20224;-72
2023/09/13 01:40:35;;;;;;;20.50;13.00;;;;;;;17.29;100.00;100206.31;4997178;28;20219;-73
2023/09/13 01:43:03;;;;;;;20.40;13.03;;;;;;;17.19;100.00;100210.00;5008832;23;20256;-74
2023/09/13 01:45:32;;;;;;;20.17;13.40;;;;;;;17.11;100.00;100196.75;4995455;28;20201;-73
2023/09/13 01:48:01;;;;;;;20.23;12.17;;;;;;;17.00;100.00;100197.84;4992302;28;20278;-73
2023/09/13 01:50:27;;;;;;;20.17;13.53;;;;;;;17.04;100.00;100197.78;5000377;28;20223;-73
2023/09/13 01:52:54;;;;;;;20.70;13.03;;;;;;;16.95;100.00;100199.72;4993012;28;20603;-74
2023/09/13 01:55:20;;;;;;;21.37;12.90;;;;;;;16.99;100.00;100217.50;4986207;28;20216;-74
2023/09/13 01:57:47;;;;;;;20.40;12.47;;;;;;;16.88;100.00;100209.63;4982212;28;20205;-73
2023/09/13 02:00:14;;;;;;;17.93;12.43;;;;;;;16.84;100.00;100223.97;4990000;28;20209;-74
2023/09/13 02:02:40;;;;;;;17.67;12.10;;;;;;;16.81;100.00;100219.56;4994216;28;20238;-73
2023/09/13 02:05:07;;;;;;;16.53;12.00;;;;;;;16.82;100.00;100226.66;4984447;28;20220;-73
2023/09/13 02:07:33;;;;;;;21.90;12.10;;;;;;;16.85;100.00;100226.63;4988283;28;20205;-73
2023/09/13 02:09:59;;;;;;;19.17;11.60;;;;;;;16.86;100.00;100232.84;4992860;28;20220;-74
2023/09/13 02:12:26;;;;;;;17.33;12.10;;;;;;;16.93;100.00;100229.19;4987347;28;20712;-73
2023/09/13 02:14:53;;;;;;;16.90;11.77;;;;;;;16.97;100.00;100228.22;5005178;28;20223;-74
2023/09/13 02:17:19;;;;;;;16.33;11.43;;;;;;;17.01;100.00;100231.72;4992239;28;20279;-73
2023/09/13 02:19:50;;;;;;;16.50;11.37;;;;;;;16.99;100.00;100233.53;4995243;28;20204;-73
2023/09/13 02:22:17;;;;;;;17.73;10.57;;;;;;;16.94;100.00;100236.28;4990214;28;20677;-74
2023/09/13 02:24:43;;;;;;;15.37;10.47;;;;;;;16.87;100.00;100230.16;4993290;28;20231;-74
2023/09/13 02:27:10;;;;;;;15.97;10.90;;;;;;;16.89;100.00;100235.47;4987754;28;20205;-74
2023/09/13 02:29:37;;;;;;;13.23;9.83;;;;;;;16.84;100.00;100230.19;4988133;28;20295;-73
2023/09/13 02:32:03;;;;;;;17.63;10.27;;;;;;;16.82;100.00;100221.31;4990290;28;20677;-74
2023/09/13 02:34:32;;;;;;;13.83;9.90;;;;;;;16.87;100.00;100218.56;4991486;28;20669;-74
2023/09/13 02:36:59;;;;;;;14.10;10.13;;;;;;;16.80;100.00;100225.78;5006413;28;20287;-74
2023/09/13 02:39:32;;;;;;;13.80;9.37;;;;;;;16.75;100.00;100222.28;4991078;28;20231;-74
2023/09/13 02:41:59;;;;;;;14.33;10.27;;;;;;;16.75;100.00;100219.63;4993728;28;20294;-74
2023/09/13 02:44:25;;;;;;;15.10;10.03;;;;;;;16.77;100.00;100227.63;4986100;28;20748;-74
2023/09/13 02:46:51;;;;;;;14.93;10.10;;;;;;;16.72;100.00;100221.44;4989985;28;20222;-74
2023/09/13 02:49:18;;;;;;;15.57;9.93;;;;;;;16.70;100.00;100225.94;4984155;28;20207;-74
2023/09/13 02:51:47;;;;;;;13.77;9.73;;;;;;;16.71;100.00;100225.03;4991945;28;20208;-74
2023/09/13 02:54:14;;;;;;;15.03;9.30;;;;;;;16.71;100.00;100217.91;4992564;28;20782;-74
2023/09/13 02:56:40;;;;;;;13.37;9.67;;;;;;;16.77;100.00;100217.81;4989521;28;20209;-74
2023/09/13 02:59:07;;;;;;;14.03;8.80;;;;;;;16.78;100.00;100221.34;5003431;28;20216;-74
2023/09/13 03:01:33;;;;;;;13.47;8.73;;;;;;;16.76;100.00;100210.69;4988832;28;20224;-74
2023/09/13 03:04:00;;;;;;;14.23;9.23;;;;;;;16.75;100.00;100210.72;4993538;28;20708;-74
2023/09/13 03:06:26;;;;;;;13.37;8.50;;;;;;;16.77;100.00;100220.47;4993894;28;20204;-74
2023/09/13 03:08:53;;;;;;;13.23;8.07;;;;;;;16.83;100.00;100228.44;4991531;28;20283;-75
2023/09/13 03:11:19;;;;;;;12.30;9.00;;;;;;;16.75;100.00;100224.06;4991560;28;20197;-74
2023/09/13 03:13:45;;;;;;;12.20;8.67;;;;;;;16.67;100.00;100221.53;4989503;28;20244;-74
2023/09/13 03:16:18;;;;;;;12.97;8.33;;;;;;;16.61;100.00;100224.25;4986093;28;20201;-74
2023/09/13 03:18:48;;;;;;;12.90;8.90;;;;;;;16.62;100.00;100226.03;4987902;28;20216;-75
2023/09/13 03:21:15;;;;;;;11.27;7.57;;;;;;;16.59;100.00;100234.09;4990823;28;21257;-74
2023/09/13 03:23:44;;;;;;;12.10;7.87;;;;;;;16.48;100.00;100234.25;4989688;28;20308;-74
2023/09/13 03:26:13;;;;;;;12.97;7.97;;;;;;;16.41;100.00;100235.22;4990532;28;20196;-74
2023/09/13 03:28:42;;;;;;;10.87;7.80;;;;;;;16.36;100.00;100234.38;4988638;28;20201;-74
2023/09/13 03:31:12;;;;;;;11.27;7.70;;;;;;;16.44;100.00;100229.84;4988857;28;20583;-74
2023/09/13 03:33:39;;;;;;;12.80;7.50;;;;;;;16.49;100.00;100232.44;4990698;28;20229;-74
2023/09/13 03:36:08;;;;;;;10.47;7.63;;;;;;;16.56;100.00;100231.44;4990500;28;20643;-74
2023/09/13 03:38:39;;;;;;;10.10;7.50;;;;;;;16.61;100.00;100235.81;4984531;28;20211;-74
2023/09/13 03:41:07;;;;;;;10.73;7.23;;;;;;;16.61;100.00;100227.81;4989515;28;20430;-74
2023/09/13 03:43:33;;;;;;;9.70;6.93;;;;;;;16.56;100.00;100235.00;4989794;28;20231;-74
2023/09/13 03:46:01;;;;;;;8.77;7.03;;;;;;;16.51;100.00;100226.16;4993913;28;20235;-74
2023/09/13 03:48:30;;;;;;;10.33;7.13;;;;;;;16.45;100.00;100230.72;4989394;28;20244;-74
2023/09/13 03:50:57;;;;;;;10.50;6.87;;;;;;;16.42;100.00;100220.06;4987917;28;20211;-74
2023/09/13 03:53:24;;;;;;;9.37;7.00;;;;;;;16.42;100.00;100222.75;4987698;28;20244;-74
2023/09/13 03:55:51;;;;;;;9.97;6.33;;;;;;;16.41;100.00;100226.28;4990351;28;20201;-74
2023/09/13 03:58:17;;;;;;;8.90;6.40;;;;;;;16.35;100.00;100226.38;4990774;28;20204;-74
2023/09/13 04:00:44;;;;;;;8.23;6.07;;;;;;;16.24;100.00;100227.41;4989136;28;20307;-74
2023/09/13 04:03:11;;;;;;;9.63;6.33;;;;;;;16.18;100.00;100223.91;4993332;28;20247;-74
2023/09/13 04:05:38;;;;;;;8.60;5.67;;;;;;;16.19;100.00;100233.72;4987424;28;20234;-75
2023/09/13 04:08:04;;;;;;;8.53;5.80;;;;;;;16.17;100.00;100236.41;4986466;28;20212;-74
2023/09/13 04:10:31;;;;;;;11.43;5.83;;;;;;;16.16;100.00;100237.31;4988519;28;20216;-74
2023/09/13 04:12:57;;;;;;;8.00;5.80;;;;;;;16.17;100.00;100233.72;4988330;28;20256;-74
2023/09/13 04:15:24;;;;;;;8.90;6.63;;;;;;;16.26;100.00;100232.72;4993991;28;20677;-74
2023/09/13 04:17:50;;;;;;;10.00;6.27;;;;;;;16.25;100.00;100231.84;4987308;28;20689;-74
2023/09/13 04:20:17;;;;;;;8.77;6.40;;;;;;;16.24;100.00;100227.41;4987254;28;20205;-74
2023/09/13 04:22:43;;;;;;;8.50;5.93;;;;;;;16.23;100.00;100241.66;4991252;28;20217;-74
2023/09/13 04:25:10;;;;;;;9.77;6.17;;;;;;;16.27;100.00;100248.75;4990625;28;20220;-74
2023/09/13 04:27:36;;;;;;;8.03;6.07;;;;;;;16.36;100.00;100249.53;4981604;28;20712;-74
2023/09/13 04:30:03;;;;;;;10.93;6.70;;;;;;;16.44;100.00;100245.88;4982877;28;20196;-74
2023/09/13 04:32:29;;;;;;;8.77;6.00;;;;;;;16.47;100.00;100245.84;4987029;28;20228;-74
2023/09/13 04:34:57;;;;;;;7.70;6.07;;;;;;;16.49;100.00;100232.44;4976587;28;20204;-74
2023/09/13 04:37:25;;;;;;;9.03;6.50;;;;;;;16.50;100.00;100247.59;4984392;28;20236;-74
2023/09/13 04:39:52;;;;;;;8.00;6.23;;;;;;;16.50;100.00;100259.16;4985073;28;20291;-74
2023/09/13 04:42:18;;;;;;;8.13;6.13;;;;;;;16.51;100.00;100250.22;4983494;28;20235;-73
2023/09/13 04:44:45;;;;;;;7.70;5.70;;;;;;;16.53;100.00;100250.22;4981506;28;20221;-74
2023/09/13 04:47:11;;;;;;;9.57;6.03;;;;;;;16.56;100.00;100256.41;4986214;28;20287;-74
2023/09/13 04:49:38;;;;;;;8.70;6.30;;;;;;;16.58;100.00;100265.28;4988644;28;20208;-74
2023/09/13 04:52:06;;;;;;;11.53;6.17;;;;;;;16.62;100.00;100263.44;4990513;28;20291;-74
2023/09/13 04:54:32;;;;;;;8.47;5.83;;;;;;;16.63;100.00;100267.91;4989718;28;20200;-74
2023/09/13 04:56:59;;;;;;;9.37;5.83;;;;;;;16.63;100.00;100272.34;4988804;28;20209;-75
2023/09/13 04:59:43;;;;;;;8.53;5.90;;;;;;;16.63;100.00;100264.34;4987716;28;20279;-74
2023/09/13 05:02:11;;;;;;;10.13;6.30;;;;;;;16.62;100.00;100260.78;4989209;28;20204;-74
2023/09/13 05:04:38;;;;;;;9.27;5.83;;;;;;;16.63;100.00;100267.00;4990448;28;20619;-74
2023/09/13 05:07:05;;;;;;;7.67;5.87;;;;;;;16.69;100.00;100265.16;5004461;28;20217;-74
2023/09/13 05:09:32;;;;;;;10.20;6.77;;;;;;;16.72;100.00;100270.47;4990944;28;20236;-75
2023/09/13 05:11:59;;;;;;;7.80;5.93;;;;;;;16.73;100.00;100274.91;4987780;28;20204;-75
2023/09/13 05:14:26;;;;;;;12.00;6.63;;;;;;;16.74;100.00;100268.66;4993801;28;20288;-74
2023/09/13 05:16:52;;;;;;;8.73;5.97;;;;;;;16.82;100.00;100271.25;4989159;28;20208;-74
2023/09/13 05:19:19;;;;;;;8.77;5.90;;;;;;;16.88;100.00;100274.72;4990562;28;20208;-75
2023/09/13 05:21:46;;;;;;;8.73;5.50;;;;;;;16.96;100.00;100277.28;4987243;28;20291;-74
2023/09/13 05:24:12;;;;;;;10.03;6.40;;;;;;;17.04;100.00;100275.38;4991918;28;20688;-74
2023/09/13 05:26:39;;;;;;;9.00;6.20;;;;;;;17.17;100.00;100273.38;4984919;28;20206;-76
2023/09/13 05:29:05;;;;;;;10.07;6.20;;;;;;;17.29;100.00;100275.00;4988923;28;20209;-76
2023/09/13 05:31:32;;;;;;;9.57;6.23;;;;;;;17.38;100.00;100273.06;4989462;28;20213;-75
2023/09/13 05:33:58;;;;;;;9.07;6.37;;;;;;;17.48;100.00;100276.47;4989281;28;20646;-75
2023/09/13 05:36:25;;;;;;;8.37;6.33;;;;;;;17.50;100.00;100277.31;4989467;28;20205;-75
2023/09/13 05:38:51;;;;;;;11.97;5.97;;;;;;;17.66;100.00;100283.31;4990474;28;20790;-75
2023/09/13 05:41:18;;;;;;;9.37;6.37;;;;;;;17.74;100.00;100290.34;4989645;28;20300;-78
2023/09/13 05:43:46;;;;;;;8.60;6.37;;;;;;;17.77;100.00;100286.72;4988095;28;20786;-75
2023/09/13 05:46:15;;;;;;;9.60;6.47;;;;;;;17.76;100.00;100295.69;4987841;28;20271;-73
2023/09/13 05:48:42;;;;;;;8.87;5.90;;;;;;;17.80;100.00;100302.75;4978659;28;20205;-75
2023/09/13 05:51:09;;;;;;;9.70;5.87;;;;;;;17.88;100.00;100299.94;4985474;28;20202;-74
2023/09/13 05:53:35;;;;;;;8.53;5.30;;;;;;;17.89;100.00;100296.34;4988658;28;20235;-74
2023/09/13 05:56:03;;;;;;;9.15;6.10;;;;;;;17.94;100.00;100303.38;4983469;28;20761;-73
2023/09/13 05:58:30;;;;;;;9.43;5.20;;;;;;;18.03;100.00;100313.94;4986065;28;20324;-73
2023/09/13 06:00:57;;;;;;;6.45;5.22;;;;;;;18.15;100.00;100313.72;4985387;28;20204;-73
2023/09/13 06:03:24;;;;;;;7.13;5.37;;;;;;;18.24;100.00;100315.34;4990266;28;20233;-73
2023/09/13 06:05:51;;;;;;;8.82;5.68;;;;;;;18.34;100.00;100313.34;4986962;28;20568;-73
2023/09/13 06:08:18;;;;;;;7.18;5.75;;;;;;;18.31;100.00;100316.09;4989159;28;20751;-73
2023/09/13 06:10:47;;;;;;;9.25;5.07;;;;;;;18.30;100.00;100325.06;4985235;28;20201;-74
2023/09/13 06:13:15;;;;;;;8.02;5.32;;;;;;;18.42;100.00;100332.88;4988232;28;20693;-70
2023/09/13 06:15:42;;;;;;;7.15;5.57;;;;;;;18.48;100.00;100330.06;4986102;28;20215;-73
2023/09/13 06:18:08;;;;;;;6.97;5.35;;;;;;;18.59;100.00;100340.56;4991134;28;20228;-72
2023/09/13 06:20:35;;;;;;;7.47;5.38;;;;;;;18.64;100.00;100338.72;4985757;28;20665;-72
2023/09/13 06:23:02;;;;;;;8.82;5.60;;;;;;;18.47;100.00;100336.34;4983228;28;20302;-73
2023/09/13 06:25:28;;;;;;;7.78;5.60;;;;;;;18.73;100.00;100343.88;4984585;28;20303;-73
2023/09/13 06:27:55;;;;;;;7.63;5.18;;;;;;;18.77;100.00;100341.09;4991332;28;20208;-73
2023/09/13 06:30:21;;;;;;;7.78;5.80;;;;;;;19.03;100.00;100339.69;4992383;28;20677;-72
2023/09/13 06:32:48;;;;;;;10.77;5.53;;;;;;;19.11;100.00;100337.69;4989374;28;20229;-72
2023/09/13 06:35:37;;;;;;;6.30;5.10;;;;;;;19.14;100.00;100339.44;4992173;28;20205;-72
2023/09/13 06:38:04;;;;;;;7.93;5.35;;;;;;;19.29;100.00;100340.00;4989439;28;20207;-72
2023/09/13 06:40:33;;;;;;;6.07;5.03;;;;;;;19.42;100.00;100344.16;4992003;28;20243;-72
2023/09/13 06:43:01;;;;;;;8.77;5.20;;;;;;;19.53;100.00;100338.53;4996434;28;20320;-73
2023/09/13 06:45:29;;;;;;;8.90;5.63;;;;;;;19.62;100.00;100343.72;4990694;28;20217;-72
2023/09/13 06:47:57;;;;;;;11.32;6.03;;;;;;;19.63;100.00;100344.59;4987865;28;20205;-72
2023/09/13 06:50:24;;;;;;;9.90;5.28;;;;;;;19.61;100.00;100338.34;4995998;28;20212;-71
2023/09/13 06:53:11;;;;;;;8.88;5.70;;;;;;;19.60;100.00;100341.97;4991332;28;20287;-75
2023/09/13 06:55:57;;;;;;;9.65;4.88;;;;;;;19.71;100.00;100348.84;4991167;28;20201;-74
2023/09/13 06:58:27;;;;;;;6.60;4.93;;;;;;;19.71;100.00;100358.72;4992207;28;20587;-75
2023/09/13 07:00:55;;;;;;;7.60;5.15;;;;;;;19.71;100.00;100350.66;4991077;28;20205;-72
2023/09/13 07:03:41;;;;;;;6.25;5.07;;;;;;;19.67;100.00;100362.41;4985180;28;20229;-75
2023/09/13 07:06:15;;;;;;;8.02;5.03;;;;;;;19.56;100.00;100370.69;4991634;28;20244;-75
2023/09/13 07:08:41;;;;;;;6.15;4.55;;;;;;;19.58;100.00;100368.88;4991514;28;20205;-72
2023/09/13 07:11:09;;;;;;;7.10;4.80;;;;;;;19.56;100.00;100369.81;4985198;28;20308;-72
2023/09/13 07:13:35;;;;;;;6.57;4.95;;;;;;;19.70;100.00;100373.97;4987851;28;20248;-72
2023/09/13 07:16:02;;;;;;;9.45;5.78;;;;;;;19.77;100.00;100377.38;4999654;28;20201;-74
2023/09/13 07:18:28;;;;;;;7.13;4.80;;;;;;;19.78;100.00;100373.78;4988798;28;20208;-73
2023/09/13 07:20:54;;;;;;;6.53;5.30;;;;;;;19.67;100.00;100371.34;5004366;28;20208;-73
2023/09/13 07:23:21;;;;;;;7.97;5.80;;;;;;;19.78;100.00;100376.47;4989989;28;20250;-73
2023/09/13 07:25:48;;;;;;;7.07;4.97;;;;;;;19.92;100.00;100386.84;4989866;28;20255;-73
2023/09/13 07:28:15;;;;;;;6.88;5.40;;;;;;;20.08;100.00;100385.56;4990624;28;20216;-72
2023/09/13 07:30:42;;;;;;;7.20;5.35;;;;;;;20.22;100.00;100391.47;5003859;28;20204;-72
2023/09/13 07:33:08;;;;;;;9.20;5.25;;;;;;;20.31;100.00;100384.97;5006704;28;20747;-74
2023/09/13 07:35:35;;;;;;;7.95;4.80;;;;;;;20.27;100.00;100383.28;4990187;28;20204;-74
2023/09/13 07:38:01;;;;;;;9.93;5.68;;;;;;;20.27;100.00;100384.16;4990292;28;20205;-74
2023/09/13 07:40:28;;;;;;;8.80;5.63;;;;;;;20.40;100.00;100390.13;4984342;28;20201;-73
2023/09/13 07:42:54;;;;;;;6.93;5.07;;;;;;;20.53;100.00;100396.06;4987013;28;20256;-73
2023/09/13 07:45:20;;;;;;;7.80;5.82;;;;;;;20.64;100.00;100402.91;4987781;28;20224;-74
2023/09/13 07:47:47;;;;;;;9.07;5.28;;;;;;;20.79;100.00;100408.78;4989225;28;20212;-73
2023/09/13 07:50:37;;;;;;;8.13;5.35;;;;;;;20.96;100.00;100410.09;4987672;28;20205;-73
2023/09/13 07:53:03;;;;;;;7.40;5.80;;;;;;;21.02;100.00;100410.84;4986802;28;20220;-73
2023/09/13 07:55:33;;;;;;;8.05;5.18;;;;;;;21.15;100.00;100418.50;4985965;28;20684;-73
2023/09/13 07:58:00;;;;;;;7.60;5.50;;;;;;;21.18;100.00;100426.50;4986770;28;20205;-73
2023/09/13 08:00:26;;;;;;;6.32;5.57;;;;;;;21.23;100.00;100424.59;4985206;28;20289;-73
2023/09/13 08:02:53;;;;;;;6.32;5.15;;;;;;;21.34;100.00;100423.38;4991887;28;20220;-74
2023/09/13 08:05:19;;;;;;;6.63;5.30;;;;;;;21.42;100.00;100427.63;4987186;28;20231;-73
2023/09/13 08:07:46;;;;;;;9.55;5.28;;;;;;;21.48;100.00;100430.13;4989361;28;20291;-73
2023/09/13 08:10:13;;;;;;;6.20;4.90;;;;;;;21.52;100.00;100439.88;4988506;28;20266;-73
2023/09/13 08:12:40;;;;;;;7.30;5.18;;;;;;;21.70;100.00;100438.44;4986955;28;20271;-74
2023/09/13 08:15:07;;;;;;;7.10;5.07;;;;;;;21.77;100.00;100439.13;4987127;28;20213;-73
2023/09/13 08:17:33;;;;;;;9.30;5.60;;;;;;;22.09;100.00;100444.41;4985765;28;20204;-74
2023/09/13 08:20:02;;;;;;;6.90;5.13;;;;;;;22.36;100.00;100442.56;4989256;28;20232;-73
2023/09/13 08:22:28;;;;;;;7.65;4.95;;;;;;;22.71;100.00;100453.97;4989861;28;20229;-73
2023/09/13 08:25:08;;;;;;;6.35;4.97;;;;;;;23.11;100.00;100453.44;4983879;28;20205;-73
2023/09/13 08:27:34;;;;;;;6.88;5.15;;;;;;;23.24;100.00;100457.47;4988838;28;20207;-73
2023/09/13 08:30:01;;;;;;;9.85;4.85;;;;;;;23.44;100.00;100444.06;4990046;28;20221;-73
2023/09/13 08:32:28;;;;;;;8.15;5.28;;;;;;;23.58;100.00;100459.75;4988667;28;20256;-73
2023/09/13 08:34:55;;;;;;;7.70;5.18;;;;;;;23.69;100.00;100460.25;4991786;28;20243;-74
2023/09/13 08:37:22;;;;;;;6.07;4.78;;;;;;;23.65;100.00;100464.03;4988893;28;20263;-73
2023/09/13 08:39:48;;;;;;;6.90;4.80;;;;;;;23.87;100.00;100468.56;4996323;28;20209;-73
2023/09/13 08:42:15;;;;;;;7.68;5.40;;;;;;;24.09;100.00;100463.19;4989496;28;20236;-73
2023/09/13 08:44:43;;;;;;;7.78;6.03;;;;;;;24.03;100.00;100472.44;5005933;28;20248;-73
2023/09/13 08:47:11;;;;;;;6.35;4.88;;;;;;;24.39;100.00;100467.31;4990289;28;20216;-73
2023/09/13 08:49:38;;;;;;;11.18;5.10;;;;;;;24.57;100.00;100473.81;5005192;28;20384;-72
2023/09/13 08:52:06;;;;;;;7.90;5.80;;;;;;;24.21;100.00;100487.91;4987878;28;20526;-72
2023/09/13 08:54:36;;;;;;;7.43;5.80;;;;;;;23.77;100.00;100470.75;4988980;28;20240;-74
2023/09/13 08:57:25;;;;;;;7.15;5.50;;;;;;;23.83;100.00;100486.75;4988563;28;20267;-72
2023/09/13 08:59:53;;;;;;;8.77;5.28;;;;;;;24.04;100.00;100483.19;4990059;28;20209;-73
2023/09/13 09:02:23;;;;;;;7.32;5.30;;;;;;;23.65;100.00;100491.06;4988657;28;20589;-74
2023/09/13 09:04:51;;;;;;;9.32;5.40;;;;;;;23.57;100.00;100492.28;4987785;28;20245;-73
2023/09/13 09:07:19;;;;;;;7.05;5.10;;;;;;;23.56;100.00;100499.50;4989269;28;20221;-72
2023/09/13 09:09:46;;;;;;;7.32;4.80;;;;;;;23.66;100.00;100502.75;4988723;28;20700;-73
2023/09/13 09:12:16;;;;;;;7.55;4.70;;;;;;;23.85;100.00;100501.09;4991833;28;20205;-72
2023/09/13 09:14:45;;;;;;;7.75;5.15;;;;;;;23.52;100.00;100507.75;4987156;28;20201;-73
2023/09/13 09:17:14;;;;;;;6.45;4.30;;;;;;;23.48;100.00;100496.19;4981917;28;20200;-72
2023/09/13 09:19:41;;;;;;;7.10;4.40;;;;;;;23.71;100.00;100498.94;4994979;28;20204;-73
2023/09/13 09:22:08;;;;;;;6.63;4.32;;;;;;;23.81;100.00;100495.84;4997364;28;20205;-72
2023/09/13 09:24:35;;;;;;;6.60;4.10;;;;;;;24.18;100.00;100501.56;4993164;28;20208;-72
2023/09/13 09:27:02;;;;;;;5.45;4.15;;;;;;;24.27;100.00;100495.78;4995985;28;20286;-73
2023/09/13 09:29:34;;;;;;;5.30;4.30;;;;;;;24.25;100.00;100492.25;4987725;28;20220;-72
2023/09/13 09:32:00;;;;;;;5.53;4.28;;;;;;;24.80;100.00;100489.91;4987777;28;20601;-72
2023/09/13 09:34:31;;;;;;;4.90;3.80;;;;;;;25.30;100.00;100482.28;4978246;28;20284;-75
2023/09/13 09:37:07;;;;;;;4.75;3.80;;;;;;;25.03;99.91;100493.50;4984782;28;20216;-73
2023/09/13 09:39:38;;;;;;;8.25;4.05;;;;;;;24.52;100.00;100498.38;4987531;28;20602;-73
2023/09/13 09:42:05;;;;;;;4.03;3.47;;;;;;;24.10;100.00;100506.41;4997528;28;20576;-72
2023/09/13 09:44:32;;;;;;;4.32;3.33;;;;;;;24.10;100.00;100505.53;4993710;28;20756;-73
2023/09/13 09:46:58;;;;;;;4.88;3.67;;;;;;;23.96;100.00;100504.25;4989880;28;20591;-72
2023/09/13 09:49:25;;;;;;;5.30;3.63;;;;;;;23.98;100.00;100506.88;4991402;28;20623;-73
2023/09/13 09:51:53;;;;;;;3.83;3.03;;;;;;;23.98;100.00;100504.16;4985848;28;20603;-72
2023/09/13 09:54:20;;;;;;;4.32;3.25;;;;;;;24.00;100.00;100505.88;4989274;28;20227;-73
2023/09/13 09:56:46;;;;;;;4.90;3.40;;;;;;;23.69;100.00;100508.94;4982749;28;20235;-73
2023/09/13 09:59:13;;;;;;;4.47;3.10;;;;;;;23.81;100.00;100507.56;4990960;28;20201;-74
2023/09/13 10:01:42;;;;;;;4.72;3.05;;;;;;;23.96;100.00;100514.19;4990380;28;20204;-74
2023/09/13 10:04:10;;;;;;;4.15;3.40;;;;;;;23.89;100.00;100512.66;4991768;28;20240;-75
2023/09/13 10:06:37;;;;;;;4.07;3.20;;;;;;;23.66;100.00;100529.81;4992888;28;20228;-73
2023/09/13 10:09:04;;;;;;;3.33;3.00;;;;;;;23.38;100.00;100528.09;4988612;28;20570;-72
2023/09/13 10:11:30;;;;;;;4.30;2.65;;;;;;;23.36;100.00;100523.69;4990545;28;20617;-73
2023/09/13 10:13:57;;;;;;;4.75;3.00;;;;;;;23.37;100.00;100531.72;4990533;28;20237;-74
2023/09/13 10:16:29;;;;;;;4.43;3.28;;;;;;;23.49;100.00;100541.19;4991504;28;20285;-74
2023/09/13 10:19:00;;;;;;;4.18;3.38;;;;;;;23.74;100.00;100549.31;4985634;28;20216;-73
2023/09/13 10:21:32;;;;;;;8.85;3.35;;;;;;;23.55;100.00;100546.41;4987506;28;20704;-73
2023/09/13 10:24:01;;;;;;;7.30;4.90;;;;;;;23.39;100.00;100540.66;4988609;28;20228;-73
2023/09/13 10:26:31;;;;;;;6.50;3.38;;;;;;;23.14;100.00;100546.06;4979150;28;20228;-73
2023/09/13 10:29:07;;;;;;;6.40;3.78;;;;;;;22.80;100.00;100540.03;4986844;28;20201;-73
2023/09/13 10:31:41;;;;;;;5.75;3.90;;;;;;;22.70;100.00;100549.41;4985123;28;20259;-74
2023/09/13 10:34:14;;;;;;;6.13;3.67;;;;;;;22.62;100.00;100548.78;4989782;28;20601;-72
2023/09/13 10:36:47;;;;;;;6.03;4.00;;;;;;;22.73;100.00;100549.28;4988088;28;20200;-73
2023/09/13 10:39:16;;;;;;;3.47;3.15;;;;;;;22.65;100.00;100554.06;4988954;28;20197;-73
2023/09/13 10:41:52;;;;;;;5.13;3.80;;;;;;;22.35;100.00;100551.44;5005105;28;20201;-73
2023/09/13 10:44:20;;;;;;;6.05;3.90;;;;;;;22.34;100.00;100560.47;4996962;28;20850;-73
2023/09/13 10:46:46;;;;;;;6.13;4.00;;;;;;;22.38;100.00;100553.16;4985764;28;20223;-72
2023/09/13 10:49:13;;;;;;;5.78;4.07;;;;;;;22.44;100.00;100550.28;4989104;28;20205;-73
2023/09/13 10:51:41;;;;;;;5.22;3.63;;;;;;;22.28;100.00;100559.78;4983687;28;20669;-72
2023/09/13 10:54:08;;;;;;;5.75;3.60;;;;;;;22.47;100.00;100561.88;4989388;28;20734;-73
2023/09/13 10:56:35;;;;;;;4.93;3.78;;;;;;;22.60;100.00;100553.34;4988786;28;20207;-72
2023/09/13 10:59:04;;;;;;;5.15;3.30;;;;;;;22.72;100.00;100559.22;4991375;28;20212;-73
2023/09/13 11:01:31;;;;;;;6.97;3.75;;;;;;;22.84;100.00;100551.69;4989259;28;20200;-73
2023/09/13 11:03:58;;;;;;;4.75;3.58;;;;;;;23.03;100.00;100558.19;4991136;28;20252;-73
2023/09/13 11:06:26;;;;;;;4.72;3.47;;;;;;;23.21;100.00;100559.34;4985585;28;20311;-72
2023/09/13 11:08:53;;;;;;;5.70;3.70;;;;;;;23.26;100.00;100557.41;4979367;28;20213;-72
2023/09/13 11:11:21;;;;;;;4.22;3.53;;;;;;;23.42;100.00;100558.59;4981578;28;20211;-72
2023/09/13 11:13:53;;;;;;;6.40;3.47;;;;;;;23.49;100.00;100552.00;4987523;28;20305;-72
2023/09/13 11:16:22;;;;;;;4.55;3.80;;;;;;;23.54;100.00;100558.13;4986784;28;20684;-72